Time;durP1;ratioP1;P1;durP2;ratioP2;P2;SDS_P1;SDS_P2;PMS_P1;PMS_P2;Temp;Humidity;BMP_temperature;BMP_pressure;BME280_temperature;BME280_humidity;BME280_pressure;Samples;Min_cycle;Max_cycle;Signal;HPM_P1;HPM_P2
2023/10/29 00:00:29;;;;;;;;;;;11.00;99.90;;;;;;6154215;23;19916;-77
2023/10/29 00:02:55;;;;;;;;;;;11.00;99.90;;;;;;6155063;23;19939;-78
2023/10/29 00:05:20;;;;;;;;;;;11.00;99.90;;;;;;6153791;23;19916;-77
2023/10/29 00:07:46;;;;;;;;;;;11.00;99.90;;;;;;6155081;23;20363;-76
2023/10/29 00:10:12;;;;;;;;;;;11.00;99.90;;;;;;6180637;23;19923;-76
2023/10/29 00:12:37;;;;;;;;;;;11.10;99.90;;;;;;6181176;23;19916;-76
2023/10/29 00:15:04;;;;;;;;;;;11.00;99.90;;;;;;6155899;23;19986;-76
2023/10/29 00:17:29;;;;;;;;;;;11.10;99.90;;;;;;6153637;23;19944;-79
2023/10/29 00:19:55;;;;;;;;;;;11.10;99.90;;;;;;6131766;23;19916;-79
2023/10/29 00:22:20;;;;;;;;;;;11.10;99.90;;;;;;6156850;23;20247;-79
2023/10/29 00:24:46;;;;;;;;;;;11.10;99.90;;;;;;6182888;23;19920;-77
2023/10/29 00:27:12;;;;;;;;;;;11.10;99.90;;;;;;6156093;23;20229;-76
2023/10/29 00:29:38;;;;;;;;;;;11.10;99.90;;;;;;6183335;23;20225;-81
2023/10/29 00:32:03;;;;;;;;;;;11.10;99.90;;;;;;6131499;23;19932;-79
2023/10/29 00:34:29;;;;;;;;;;;11.10;99.90;;;;;;6182734;23;19920;-77
2023/10/29 00:36:54;;;;;;;;;;;11.20;99.90;;;;;;6182621;23;19916;-79
2023/10/29 00:39:20;;;;;;;;;;;11.10;99.90;;;;;;6182026;23;20023;-84
2023/10/29 00:41:45;;;;;;;;;;;11.20;99.90;;;;;;6182938;23;19955;-78
2023/10/29 00:44:11;;;;;;;;;;;11.20;99.90;;;;;;6130654;23;19994;-78
2023/10/29 00:46:40;;;;;;;;;;;11.20;99.90;;;;;;6155517;23;19920;-79
2023/10/29 00:49:06;;;;;;;;;;;11.30;99.90;;;;;;6162858;23;20073;-78
2023/10/29 00:51:32;;;;;;;;;;;11.30;99.90;;;;;;6181625;23;20429;-79
2023/10/29 00:53:58;;;;;;;;;;;11.30;99.90;;;;;;6180085;23;19994;-79
2023/10/29 00:56:23;;;;;;;;;;;11.30;99.90;;;;;;6181290;23;19963;-81
2023/10/29 00:58:51;;;;;;;;;;;11.40;99.90;;;;;;6182084;23;19916;-81
2023/10/29 01:01:16;;;;;;;;;;;11.30;99.90;;;;;;6179859;23;19920;-80
2023/10/29 01:03:42;;;;;;;;;;;11.40;99.90;;;;;;6180819;23;19923;-80
2023/10/29 01:06:08;;;;;;;;;;;11.40;99.90;;;;;;6181106;23;20397;-83
2023/10/29 01:08:34;;;;;;;;;;;11.40;99.90;;;;;;6179737;23;20316;-78
2023/10/29 01:10:59;;;;;;;;;;;11.40;99.90;;;;;;6180893;23;19920;-77
2023/10/29 01:13:25;;;;;;;;;;;11.50;99.90;;;;;;6155707;23;19923;-76
2023/10/29 01:15:50;;;;;;;;;;;11.50;99.90;;;;;;6178296;23;19920;-75
2023/10/29 01:18:16;;;;;;;;;;;11.50;99.90;;;;;;6180389;23;19916;-79
2023/10/29 01:20:42;;;;;;;;;;;11.50;99.90;;;;;;6180830;23;19995;-76
2023/10/29 01:23:07;;;;;;;;;;;11.60;99.90;;;;;;6180238;23;19920;-79
2023/10/29 01:25:33;;;;;;;;;;;11.60;99.90;;;;;;6155811;23;19919;-79
2023/10/29 01:27:59;;;;;;;;;;;11.60;99.90;;;;;;6180529;23;19916;-76
2023/10/29 01:30:25;;;;;;;;;;;11.70;99.90;;;;;;6180193;23;19916;-77
2023/10/29 01:32:51;;;;;;;;;;;11.70;99.90;;;;;;6180771;23;19920;-77
2023/10/29 01:35:16;;;;;;;;;;;11.80;99.90;;;;;;6181130;23;19920;-79
2023/10/29 01:37:42;;;;;;;;;;;11.90;99.90;;;;;;6182009;23;19966;-79
2023/10/29 01:40:08;;;;;;;;;;;11.80;99.90;;;;;;6181129;23;19982;-80
2023/10/29 01:42:33;;;;;;;;;;;11.90;99.90;;;;;;6155611;23;19922;-79
2023/10/29 01:44:59;;;;;;;;;;;11.90;99.90;;;;;;6179737;23;20299;-78
2023/10/29 01:47:24;;;;;;;;;;;11.90;99.90;;;;;;6157071;23;20288;-79
2023/10/29 01:49:50;;;;;;;;;;;11.90;99.90;;;;;;6182397;23;20342;-80
2023/10/29 01:52:15;;;;;;;;;;;11.90;99.90;;;;;;6156826;23;19927;-80
2023/10/29 01:54:42;;;;;;;;;;;12.00;99.90;;;;;;6180284;23;19920;-78
2023/10/29 01:57:07;;;;;;;;;;;12.00;99.90;;;;;;6155287;23;19920;-80
2023/10/29 01:59:33;;;;;;;;;;;12.00;99.90;;;;;;6179553;23;19917;-79
2023/10/29 02:01:58;;;;;;;;;;;12.00;99.90;;;;;;6180597;23;19922;-80
2023/10/29 02:04:26;;;;;;;;;;;12.10;99.90;;;;;;6178436;23;19915;-80
2023/10/29 02:06:55;;;;;;;;;;;12.10;99.90;;;;;;6177351;23;19927;-79
2023/10/29 02:09:21;;;;;;;;;;;12.10;99.90;;;;;;6179441;23;19978;-81
2023/10/29 02:11:47;;;;;;;;;;;12.10;99.90;;;;;;6155226;23;19921;-79
2023/10/29 02:14:12;;;;;;;;;;;12.10;99.90;;;;;;6154496;23;19916;-80
2023/10/29 02:16:38;;;;;;;;;;;12.10;99.90;;;;;;6178002;23;20022;-80
2023/10/29 02:19:03;;;;;;;;;;;12.20;99.90;;;;;;6179862;23;20384;-81
2023/10/29 02:21:29;;;;;;;;;;;12.20;99.90;;;;;;6155709;23;20386;-80
2023/10/29 02:23:55;;;;;;;;;;;12.20;99.90;;;;;;6179951;23;19923;-80
2023/10/29 02:26:23;;;;;;;;;;;12.20;99.90;;;;;;6180006;23;19916;-80
2023/10/29 02:28:49;;;;;;;;;;;12.20;99.90;;;;;;6154076;23;19916;-79
2023/10/29 02:31:15;;;;;;;;;;;12.20;99.90;;;;;;6180182;23;20329;-80
2023/10/29 02:33:43;;;;;;;;;;;12.30;99.90;;;;;;6179998;23;19951;-80
2023/10/29 02:36:09;;;;;;;;;;;12.30;99.90;;;;;;6182191;23;19927;-81
2023/10/29 02:38:34;;;;;;;;;;;12.40;99.90;;;;;;6179673;23;20171;-80
2023/10/29 02:41:00;;;;;;;;;;;12.40;99.90;;;;;;6181513;23;19919;-80
2023/10/29 02:43:26;;;;;;;;;;;12.50;99.90;;;;;;6181754;23;19947;-80
2023/10/29 02:45:52;;;;;;;;;;;12.50;99.90;;;;;;6180436;23;20403;-81
2023/10/29 02:48:17;;;;;;;;;;;12.50;99.90;;;;;;6181592;23;19923;-81
2023/10/29 02:50:43;;;;;;;;;;;12.50;99.90;;;;;;6130516;23;19916;-80
2023/10/29 02:53:09;;;;;;;;;;;12.50;99.90;;;;;;6154683;23;20320;-84
2023/10/29 02:55:35;;;;;;;;;;;12.60;99.90;;;;;;6155053;23;20283;-81
2023/10/29 02:58:01;;;;;;;;;;;12.60;99.90;;;;;;6129742;23;19920;-80
2023/10/29 03:00:27;;;;;;;;;;;12.60;99.90;;;;;;6153347;23;19954;-82
2023/10/29 03:02:52;;;;;;;;;;;12.60;99.90;;;;;;6154951;23;20602;-82
2023/10/29 03:05:18;;;;;;;;;;;12.60;99.90;;;;;;6154461;23;19978;-80
2023/10/29 03:07:43;;;;;;;;;;;12.60;99.90;;;;;;6154115;23;19947;-83
2023/10/29 03:10:09;;;;;;;;;;;12.60;99.90;;;;;;6130056;23;20002;-79
2023/10/29 03:12:35;;;;;;;;;;;12.60;99.90;;;;;;6155093;23;19990;-81
2023/10/29 03:15:01;;;;;;;;;;;12.60;99.90;;;;;;6152283;23;19987;-80
2023/10/29 03:17:26;;;;;;;;;;;12.60;99.90;;;;;;6152292;23;19947;-81
2023/10/29 03:19:52;;;;;;;;;;;12.60;99.90;;;;;;6130256;23;20557;-80
2023/10/29 03:22:17;;;;;;;;;;;12.60;99.90;;;;;;6129846;23;19931;-81
2023/10/29 03:24:43;;;;;;;;;;;12.70;99.90;;;;;;6129767;23;19916;-82
2023/10/29 03:27:08;;;;;;;;;;;12.70;99.90;;;;;;6154416;23;19991;-81
2023/10/29 03:29:34;;;;;;;;;;;12.60;99.90;;;;;;6153056;23;19978;-80
2023/10/29 03:32:00;;;;;;;;;;;12.60;99.90;;;;;;6154645;23;20347;-80
2023/10/29 03:34:26;;;;;;;;;;;12.60;99.90;;;;;;6154137;23;19916;-81
2023/10/29 03:36:51;;;;;;;;;;;12.60;99.90;;;;;;6153978;23;19939;-80
2023/10/29 03:39:17;;;;;;;;;;;12.60;99.90;;;;;;6129678;23;19920;-80
2023/10/29 03:41:43;;;;;;;;;;;12.50;99.90;;;;;;6129760;23;19962;-81
2023/10/29 03:44:08;;;;;;;;;;;12.60;99.90;;;;;;6152704;23;19920;-80
2023/10/29 03:46:34;;;;;;;;;;;12.60;99.90;;;;;;6130519;23;19916;-81
2023/10/29 03:48:59;;;;;;;;;;;12.60;99.90;;;;;;6182350;23;19916;-81
2023/10/29 03:51:28;;;;;;;;;;;12.60;99.90;;;;;;6155832;23;19917;-81
2023/10/29 03:53:56;;;;;;;;;;;12.60;99.90;;;;;;6156998;23;19916;-79
2023/10/29 03:56:22;;;;;;;;;;;12.60;99.90;;;;;;6183597;23;19916;-81
2023/10/29 03:58:48;;;;;;;;;;;12.70;99.90;;;;;;6156655;23;19916;-79
2023/10/29 04:01:14;;;;;;;;;;;12.70;99.90;;;;;;6156237;23;19930;-80
2023/10/29 04:03:40;;;;;;;;;;;12.70;99.90;;;;;;6156093;23;19920;-81
2023/10/29 04:06:10;;;;;;;;;;;12.70;99.90;;;;;;6157856;23;20329;-80
2023/10/29 04:08:35;;;;;;;;;;;12.70;99.90;;;;;;6207985;23;19943;-82
2023/10/29 04:11:01;;;;;;;;;;;12.70;99.90;;;;;;6132150;23;19920;-80
2023/10/29 04:13:27;;;;;;;;;;;12.80;99.90;;;;;;6156290;23;20387;-81
2023/10/29 04:15:52;;;;;;;;;;;12.70;99.90;;;;;;6179725;23;19912;-81
2023/10/29 04:18:19;;;;;;;;;;;12.80;99.90;;;;;;6130739;23;19987;-83
2023/10/29 04:20:45;;;;;;;;;;;12.80;99.90;;;;;;6156418;23;19924;-80
2023/10/29 04:23:10;;;;;;;;;;;12.80;99.90;;;;;;6180591;23;20065;-79
2023/10/29 04:25:36;;;;;;;;;;;12.70;99.90;;;;;;6182157;23;19924;-78
2023/10/29 04:28:02;;;;;;;;;;;12.60;99.90;;;;;;6182367;23;19970;-79
2023/10/29 04:30:27;;;;;;;;;;;12.50;99.90;;;;;;6155418;23;19962;-80
2023/10/29 04:32:53;;;;;;;;;;;12.40;99.90;;;;;;6155314;23;20232;-78
2023/10/29 04:35:18;;;;;;;;;;;12.30;99.90;;;;;;6156278;23;20420;-80
2023/10/29 04:37:44;;;;;;;;;;;12.20;99.90;;;;;;6155903;23;19916;-79
2023/10/29 04:40:09;;;;;;;;;;;12.10;99.90;;;;;;6204728;23;20307;-79
2023/10/29 04:42:35;;;;;;;;;;;12.10;99.90;;;;;;6155805;23;19947;-80
2023/10/29 04:45:00;;;;;;;;;;;12.00;99.90;;;;;;6154926;23;19916;-79
2023/10/29 04:50:07;;;;;;;;;;;12.00;99.90;;;;;;6150836;23;19916;-79
2023/10/29 04:52:33;;;;;;;;;;;12.00;99.90;;;;;;6125154;23;19917;-79
2023/10/29 04:55:00;;;;;;;;;;;12.00;99.90;;;;;;6125416;23;19923;-79
2023/10/29 04:57:27;;;;;;;;;;;11.90;99.90;;;;;;6126947;23;20248;-80
2023/10/29 04:59:52;;;;;;;;;;;11.90;99.90;;;;;;6149157;23;19924;-79
2023/10/29 05:02:18;;;;;;;;;;;11.80;99.90;;;;;;6150825;23;19924;-80
2023/10/29 05:04:43;;;;;;;;;;;11.80;99.90;;;;;;6126918;23;20133;-80
2023/10/29 05:07:09;;;;;;;;;;;11.80;99.90;;;;;;6125657;23;19999;-79
2023/10/29 05:09:35;;;;;;;;;;;11.80;99.90;;;;;;6150723;23;19920;-80
2023/10/29 05:12:01;;;;;;;;;;;11.80;99.90;;;;;;6126416;23;20295;-80
2023/10/29 05:14:26;;;;;;;;;;;11.80;99.90;;;;;;6149486;23;19955;-78
2023/10/29 05:16:52;;;;;;;;;;;11.80;99.90;;;;;;6124549;23;20268;-79
2023/10/29 05:19:17;;;;;;;;;;;11.90;99.90;;;;;;6127539;23;19917;-80
2023/10/29 05:21:43;;;;;;;;;;;11.80;99.90;;;;;;6150840;23;19956;-81
2023/10/29 05:24:09;;;;;;;;;;;11.80;99.90;;;;;;6150467;23;19926;-81
2023/10/29 05:26:36;;;;;;;;;;;11.90;99.90;;;;;;6127192;23;19928;-81
2023/10/29 05:29:05;;;;;;;;;;;11.80;99.90;;;;;;6150396;23;19943;-82
2023/10/29 05:31:31;;;;;;;;;;;11.80;99.90;;;;;;6151099;23;20368;-83
2023/10/29 05:33:57;;;;;;;;;;;11.80;99.90;;;;;;6151041;23;19948;-81
2023/10/29 05:36:22;;;;;;;;;;;11.90;99.90;;;;;;6150080;23;19924;-82
2023/10/29 05:38:48;;;;;;;;;;;12.00;99.90;;;;;;6150965;23;19920;-81
2023/10/29 05:41:13;;;;;;;;;;;12.10;99.90;;;;;;6150644;23;19944;-83
2023/10/29 05:43:39;;;;;;;;;;;12.10;99.90;;;;;;6148886;23;19920;-81
2023/10/29 05:46:04;;;;;;;;;;;12.10;99.90;;;;;;6150956;23;19920;-79
2023/10/29 05:48:30;;;;;;;;;;;12.10;99.90;;;;;;6149936;23;19920;-80
2023/10/29 05:50:56;;;;;;;;;;;12.20;99.90;;;;;;6151627;23;20287;-81
2023/10/29 05:53:21;;;;;;;;;;;12.30;99.90;;;;;;6150573;23;20188;-81
2023/10/29 05:55:47;;;;;;;;;;;12.20;99.90;;;;;;6150066;23;19917;-82
2023/10/29 05:58:12;;;;;;;;;;;12.20;99.90;;;;;;6150293;23;19944;-82
2023/10/29 06:00:38;;;;;;;;;;;12.30;99.90;;;;;;6149611;23;20372;-81
2023/10/29 06:03:03;;;;;;;;;;;12.20;99.90;;;;;;6125261;23;19916;-79
2023/10/29 06:05:29;;;;;;;;;;;12.30;99.90;;;;;;6152418;23;19917;-82
2023/10/29 06:07:55;;;;;;;;;;;12.30;99.90;;;;;;6125404;23;19917;-81
2023/10/29 06:10:20;;;;;;;;;;;12.30;99.90;;;;;;6149770;23;19921;-80
2023/10/29 06:12:46;;;;;;;;;;;12.30;99.90;;;;;;6150734;23;19987;-80
2023/10/29 06:15:11;;;;;;;;;;;12.20;99.90;;;;;;6124368;23;19916;-80
2023/10/29 06:17:37;;;;;;;;;;;12.10;99.90;;;;;;6146788;23;19963;-81
2023/10/29 06:20:04;;;;;;;;;;;12.10;99.90;;;;;;6125454;23;19955;-81
2023/10/29 06:22:30;;;;;;;;;;;12.00;99.90;;;;;;6150269;23;20068;-80
2023/10/29 06:24:56;;;;;;;;;;;12.00;99.90;;;;;;6151654;23;19975;-79
2023/10/29 06:27:21;;;;;;;;;;;11.90;99.90;;;;;;6125846;23;20361;-80
2023/10/29 06:29:47;;;;;;;;;;;11.80;99.90;;;;;;6148551;23;19921;-80
2023/10/29 06:32:12;;;;;;;;;;;11.80;99.90;;;;;;6149681;23;20158;-80
2023/10/29 06:34:38;;;;;;;;;;;11.80;99.90;;;;;;6149936;23;20118;-79
2023/10/29 06:37:03;;;;;;;;;;;11.80;99.90;;;;;;6152227;23;19951;-79
2023/10/29 06:39:29;;;;;;;;;;;11.70;99.90;;;;;;6150116;23;19954;-79
2023/10/29 06:41:54;;;;;;;;;;;11.70;99.90;;;;;;6125804;23;19940;-81
2023/10/29 06:44:20;;;;;;;;;;;11.70;99.90;;;;;;6124014;23;19959;-79
2023/10/29 06:46:45;;;;;;;;;;;11.70;99.90;;;;;;6151927;23;19923;-79
2023/10/29 06:49:12;;;;;;;;;;;11.70;99.90;;;;;;6150032;23;20078;-81
2023/10/29 06:51:37;;;;;;;;;;;11.70;99.90;;;;;;6151474;23;19943;-80
2023/10/29 06:54:03;;;;;;;;;;;11.70;99.90;;;;;;6149372;23;19920;-80
2023/10/29 06:56:29;;;;;;;;;;;11.80;99.90;;;;;;6150222;23;19958;-80
2023/10/29 06:58:54;;;;;;;;;;;11.80;99.90;;;;;;6148950;23;20019;-79
2023/10/29 07:01:20;;;;;;;;;;;11.80;99.90;;;;;;6150684;23;19983;-84
2023/10/29 07:03:46;;;;;;;;;;;11.80;99.90;;;;;;6150377;23;19917;-88
2023/10/29 07:06:14;;;;;;;;;;;11.80;99.90;;;;;;6150498;23;19921;-79
2023/10/29 07:08:39;;;;;;;;;;;11.90;99.90;;;;;;6149838;23;19920;-81
2023/10/29 07:11:05;;;;;;;;;;;12.00;99.90;;;;;;6150153;23;19916;-79
2023/10/29 07:13:31;;;;;;;;;;;12.10;99.90;;;;;;6148287;23;19955;-81
2023/10/29 07:15:59;;;;;;;;;;;12.10;99.90;;;;;;6149304;23;20289;-82
2023/10/29 07:18:24;;;;;;;;;;;12.10;99.90;;;;;;6126065;23;19916;-82
2023/10/29 07:20:50;;;;;;;;;;;12.10;99.90;;;;;;6127052;23;19916;-81
2023/10/29 07:23:16;;;;;;;;;;;12.10;99.90;;;;;;6151331;23;19920;-81
2023/10/29 07:25:41;;;;;;;;;;;12.10;99.90;;;;;;6151375;23;19912;-81
2023/10/29 07:28:07;;;;;;;;;;;12.20;99.90;;;;;;6151741;23;19956;-83
2023/10/29 07:30:33;;;;;;;;;;;12.20;99.90;;;;;;6151595;23;20405;-82
2023/10/29 07:32:58;;;;;;;;;;;12.20;99.90;;;;;;6156133;23;19923;-81
2023/10/29 07:35:24;;;;;;;;;;;12.20;99.90;;;;;;6155048;23;19940;-80
2023/10/29 07:37:49;;;;;;;;;;;12.20;99.90;;;;;;6152220;23;19943;-78
2023/10/29 07:40:16;;;;;;;;;;;12.30;99.90;;;;;;6154763;23;20039;-81
2023/10/29 07:42:41;;;;;;;;;;;12.40;99.90;;;;;;6151856;23;19917;-81
2023/10/29 07:45:07;;;;;;;;;;;12.50;99.90;;;;;;6157059;23;19928;-80
2023/10/29 07:47:33;;;;;;;;;;;12.60;99.90;;;;;;6155044;23;19920;-79
2023/10/29 07:49:58;;;;;;;;;;;12.60;99.90;;;;;;6151738;23;19923;-80
2023/10/29 07:52:24;;;;;;;;;;;12.70;99.90;;;;;;6150874;23;19916;-81
2023/10/29 07:54:49;;;;;;;;;;;12.70;99.90;;;;;;6152529;23;19916;-82
2023/10/29 07:57:15;;;;;;;;;;;12.60;99.90;;;;;;6151731;23;19920;-81
2023/10/29 07:59:41;;;;;;;;;;;12.50;99.90;;;;;;6149048;23;19952;-79
2023/10/29 08:02:06;;;;;;;;;;;12.50;99.90;;;;;;6151518;23;20326;-77
2023/10/29 08:04:32;;;;;;;;;;;12.40;99.90;;;;;;6149088;23;19920;-77
2023/10/29 08:06:57;;;;;;;;;;;12.30;99.90;;;;;;6149766;23;19979;-82
2023/10/29 08:09:23;;;;;;;;;;;12.20;99.90;;;;;;6149361;23;20225;-81
2023/10/29 08:11:48;;;;;;;;;;;12.20;99.90;;;;;;6150423;23;20408;-78
2023/10/29 08:14:14;;;;;;;;;;;12.10;99.90;;;;;;6151034;23;19917;-79
2023/10/29 08:16:41;;;;;;;;;;;12.10;99.90;;;;;;6121455;23;19920;-77
2023/10/29 08:19:07;;;;;;;;;;;12.10;99.90;;;;;;6150026;23;19935;-79
2023/10/29 08:21:33;;;;;;;;;;;12.20;99.90;;;;;;6149668;23;19956;-80
2023/10/29 08:23:58;;;;;;;;;;;12.30;99.90;;;;;;6148739;23;20226;-77
2023/10/29 08:26:26;;;;;;;;;;;12.40;99.90;;;;;;6150728;23;20067;-79
2023/10/29 08:28:52;;;;;;;;;;;12.50;99.90;;;;;;6148548;23;19924;-77
2023/10/29 08:31:24;;;;;;;;;;;12.60;99.90;;;;;;6154659;23;19927;-82
2023/10/29 08:33:49;;;;;;;;;;;12.70;99.90;;;;;;6130156;23;19920;-80
2023/10/29 08:36:15;;;;;;;;;;;12.80;99.90;;;;;;6157751;23;19948;-77
2023/10/29 08:38:41;;;;;;;;;;;12.80;99.90;;;;;;6158298;23;19987;-77
2023/10/29 08:41:13;;;;;;;;;;;12.80;99.90;;;;;;6157517;23;19920;-80
2023/10/29 08:43:38;;;;;;;;;;;12.90;99.90;;;;;;6153700;23;20341;-80
2023/10/29 08:46:04;;;;;;;;;;;12.90;99.90;;;;;;6156595;23;19938;-83
2023/10/29 08:48:30;;;;;;;;;;;12.80;99.90;;;;;;6155756;23;19969;-83
2023/10/29 08:50:56;;;;;;;;;;;12.70;99.90;;;;;;6156428;23;19916;-83
2023/10/29 08:53:22;;;;;;;;;;;12.60;99.90;;;;;;6154606;23;20321;-79
2023/10/29 08:55:47;;;;;;;;;;;12.60;99.90;;;;;;6155177;23;20313;-80
2023/10/29 08:58:13;;;;;;;;;;;12.50;99.90;;;;;;6152344;23;19983;-80
2023/10/29 09:00:40;;;;;;;;;;;12.50;99.90;;;;;;6127613;23;20259;-80
2023/10/29 09:03:05;;;;;;;;;;;12.50;99.90;;;;;;6152401;23;19928;-77
2023/10/29 09:05:31;;;;;;;;;;;12.50;99.90;;;;;;6152897;23;19916;-80
2023/10/29 09:07:57;;;;;;;;;;;12.50;99.90;;;;;;6154826;23;19923;-78
2023/10/29 09:10:22;;;;;;;;;;;12.40;99.90;;;;;;6154365;23;19996;-78
2023/10/29 09:12:48;;;;;;;;;;;12.40;99.90;;;;;;6153321;23;20248;-77
2023/10/29 09:15:15;;;;;;;;;;;12.40;99.90;;;;;;6151305;23;20356;-77
2023/10/29 09:17:40;;;;;;;;;;;12.30;99.90;;;;;;6149235;23;19920;-78
2023/10/29 09:20:06;;;;;;;;;;;12.30;99.90;;;;;;6152557;23;20291;-76
2023/10/29 09:22:32;;;;;;;;;;;12.30;99.90;;;;;;6152257;23;19951;-76
2023/10/29 09:24:58;;;;;;;;;;;12.40;99.90;;;;;;6151886;23;19947;-77
2023/10/29 09:27:24;;;;;;;;;;;12.40;99.90;;;;;;6151199;23;19991;-77
2023/10/29 09:29:49;;;;;;;;;;;12.40;99.90;;;;;;6149212;23;19916;-78
2023/10/29 09:32:15;;;;;;;;;;;12.40;99.90;;;;;;6126619;23;19920;-79
2023/10/29 09:34:40;;;;;;;;;;;12.50;99.90;;;;;;6150342;23;19917;-80
2023/10/29 09:37:06;;;;;;;;;;;12.60;99.90;;;;;;6150447;23;19919;-79
2023/10/29 09:39:31;;;;;;;;;;;12.70;99.90;;;;;;6151841;23;19927;-81
2023/10/29 09:42:01;;;;;;;;;;;12.90;99.90;;;;;;6152299;23;19923;-80
2023/10/29 09:44:29;;;;;;;;;;;13.10;99.90;;;;;;6151793;23;19920;-79
2023/10/29 09:47:00;;;;;;;;;;;13.20;99.90;;;;;;6153190;23;19920;-81
2023/10/29 09:49:25;;;;;;;;;;;13.40;99.90;;;;;;6150144;23;20363;-77
2023/10/29 09:51:51;;;;;;;;;;;13.50;99.90;;;;;;6151696;23;19916;-83
2023/10/29 09:54:16;;;;;;;;;;;13.50;99.90;;;;;;6153531;23;19917;-79
2023/10/29 09:56:42;;;;;;;;;;;13.40;99.90;;;;;;6129592;23;19920;-84
2023/10/29 09:59:08;;;;;;;;;;;13.50;99.90;;;;;;6153573;23;19916;-80
2023/10/29 10:01:33;;;;;;;;;;;13.50;99.90;;;;;;6153705;23;20281;-80
2023/10/29 10:03:59;;;;;;;;;;;13.50;99.90;;;;;;6151796;23;19917;-80
2023/10/29 10:06:26;;;;;;;;;;;13.40;99.90;;;;;;6155567;23;19917;-80
2023/10/29 10:08:57;;;;;;;;;;;13.40;99.90;;;;;;6155054;23;19917;-81
2023/10/29 10:11:24;;;;;;;;;;;13.40;99.90;;;;;;6152140;23;19924;-81
2023/10/29 10:13:50;;;;;;;;;;;13.40;99.90;;;;;;6150716;23;19919;-83
2023/10/29 10:16:15;;;;;;;;;;;13.40;99.90;;;;;;6148707;23;20234;-81
2023/10/29 10:18:48;;;;;;;;;;;13.40;99.90;;;;;;6125944;23;19916;-81
2023/10/29 10:21:14;;;;;;;;;;;13.40;99.90;;;;;;6149888;23;20441;-82
2023/10/29 10:23:47;;;;;;;;;;;13.40;99.90;;;;;;6125036;23;19921;-80
2023/10/29 10:26:14;;;;;;;;;;;13.40;99.90;;;;;;6150710;23;19925;-80
2023/10/29 10:28:55;;;;;;;;;;;13.40;99.90;;;;;;6150698;23;19916;-81
2023/10/29 10:31:22;;;;;;;;;;;13.40;99.90;;;;;;6157545;23;19917;-81
2023/10/29 10:33:48;;;;;;;;;;;13.40;99.90;;;;;;6125760;23;20350;-81
2023/10/29 10:36:13;;;;;;;;;;;13.40;99.90;;;;;;6125589;23;19987;-81
2023/10/29 10:38:51;;;;;;;;;;;13.30;99.90;;;;;;6149508;23;19960;-82
2023/10/29 10:41:17;;;;;;;;;;;13.30;99.90;;;;;;6150621;23;19916;-80
2023/10/29 10:43:43;;;;;;;;;;;13.30;99.90;;;;;;6149360;23;20351;-82
2023/10/29 10:46:11;;;;;;;;;;;13.30;99.90;;;;;;6150910;23;19963;-81
2023/10/29 10:48:37;;;;;;;;;;;13.20;99.90;;;;;;6154240;23;19920;-81
2023/10/29 10:51:04;;;;;;;;;;;13.20;99.90;;;;;;6126523;23;19995;-81
2023/10/29 10:53:30;;;;;;;;;;;13.20;99.90;;;;;;6127308;23;19921;-81
2023/10/29 10:55:57;;;;;;;;;;;13.20;99.90;;;;;;6152451;23;19917;-81
2023/10/29 10:58:23;;;;;;;;;;;13.30;99.90;;;;;;6125964;23;19924;-81
2023/10/29 11:00:49;;;;;;;;;;;13.30;99.90;;;;;;6156676;23;19947;-89
2023/10/29 11:03:15;;;;;;;;;;;13.30;99.90;;;;;;6130579;23;19952;-87
2023/10/29 11:05:41;;;;;;;;;;;13.30;99.90;;;;;;6158448;23;20182;-84
2023/10/29 11:08:07;;;;;;;;;;;13.30;99.90;;;;;;6130938;23;20269;-83
2023/10/29 11:10:33;;;;;;;;;;;13.30;99.90;;;;;;6157139;23;19921;-85
2023/10/29 11:13:20;;;;;;;;;;;13.30;99.90;;;;;;6130443;23;20090;-87
2023/10/29 11:15:46;;;;;;;;;;;13.30;99.90;;;;;;6125676;23;19944;-84
2023/10/29 11:18:12;;;;;;;;;;;13.40;99.90;;;;;;6130330;23;19916;-84
2023/10/29 11:20:38;;;;;;;;;;;13.40;99.90;;;;;;6154572;23;20233;-90
2023/10/29 11:23:07;;;;;;;;;;;13.50;99.90;;;;;;6152340;23;19921;-86
2023/10/29 11:25:33;;;;;;;;;;;13.60;99.90;;;;;;6152742;23;20348;-85
2023/10/29 11:27:59;;;;;;;;;;;13.70;99.90;;;;;;6129297;23;19922;-86
2023/10/29 11:30:28;;;;;;;;;;;13.80;99.90;;;;;;6155621;23;19924;-86
2023/10/29 11:33:06;;;;;;;;;;;13.80;99.90;;;;;;6153788;23;20324;-87
2023/10/29 11:35:32;;;;;;;;;;;13.80;99.90;;;;;;6131876;23;19939;-86
2023/10/29 11:38:00;;;;;;;;;;;13.70;99.90;;;;;;6158940;23;19944;-80
2023/10/29 11:40:25;;;;;;;;;;;13.70;99.90;;;;;;6152229;23;20356;-82
2023/10/29 11:42:51;;;;;;;;;;;13.70;99.90;;;;;;6152781;23;19921;-83
2023/10/29 11:45:35;;;;;;;;;;;13.80;99.90;;;;;;6148804;23;19920;-82
2023/10/29 11:48:09;;;;;;;;;;;13.90;99.90;;;;;;6152825;23;19917;-80
2023/10/29 11:50:35;;;;;;;;;;;13.90;99.90;;;;;;6155050;23;19917;-81
2023/10/29 11:53:01;;;;;;;;;;;14.00;99.90;;;;;;6152078;23;19923;-80
2023/10/29 11:55:38;;;;;;;;;;;14.00;99.90;;;;;;6151089;23;19916;-80
2023/10/29 11:58:04;;;;;;;;;;;13.90;99.90;;;;;;6151641;23;20051;-81
2023/10/29 12:00:38;;;;;;;;;;;13.80;99.90;;;;;;6152514;23;19916;-80
2023/10/29 12:03:04;;;;;;;;;;;13.70;99.90;;;;;;6154415;23;19940;-89
2023/10/29 12:05:29;;;;;;;;;;;13.70;99.90;;;;;;6157366;23;20273;-92
2023/10/29 12:08:01;;;;;;;;;;;13.50;99.90;;;;;;6156020;23;19917;-82
2023/10/29 12:10:26;;;;;;;;;;;13.50;99.90;;;;;;6152579;23;19916;-81
2023/10/29 12:12:55;;;;;;;;;;;13.40;99.90;;;;;;6155092;23;19925;-84
2023/10/29 12:15:23;;;;;;;;;;;13.30;99.90;;;;;;6173512;23;19994;-80
2023/10/29 12:17:48;;;;;;;;;;;13.30;99.90;;;;;;6152733;23;20203;-79
2023/10/29 12:20:25;;;;;;;;;;;13.20;99.90;;;;;;6153079;23;19948;-80
2023/10/29 12:22:57;;;;;;;;;;;13.20;99.90;;;;;;6126985;23;19916;-80
2023/10/29 12:25:26;;;;;;;;;;;13.20;99.90;;;;;;6153485;23;19967;-80
2023/10/29 12:27:52;;;;;;;;;;;13.20;99.90;;;;;;6151681;23;20324;-80
2023/10/29 12:30:34;;;;;;;;;;;13.20;99.90;;;;;;6149794;23;19991;-80
2023/10/29 12:33:16;;;;;;;;;;;13.20;99.90;;;;;;6154993;23;19952;-84
2023/10/29 12:35:42;;;;;;;;;;;13.20;99.90;;;;;;6132487;23;20309;-81
2023/10/29 12:38:11;;;;;;;;;;;13.20;99.90;;;;;;6129400;23;19920;-80
2023/10/29 12:40:36;;;;;;;;;;;13.30;99.90;;;;;;6154492;23;20332;-79
2023/10/29 12:43:02;;;;;;;;;;;13.30;99.90;;;;;;6155172;23;19927;-77
2023/10/29 12:45:29;;;;;;;;;;;13.30;99.90;;;;;;6154179;23;20336;-77
2023/10/29 12:48:14;;;;;;;;;;;13.40;99.90;;;;;;6127783;23;20229;-78
2023/10/29 12:50:45;;;;;;;;;;;13.50;99.90;;;;;;6151426;23;19921;-77
2023/10/29 12:53:11;;;;;;;;;;;13.60;99.90;;;;;;6126486;23;19963;-77
2023/10/29 12:55:44;;;;;;;;;;;13.70;99.90;;;;;;6126198;23;19916;-78
2023/10/29 12:58:10;;;;;;;;;;;13.70;99.90;;;;;;6150849;23;19923;-77
2023/10/29 13:00:37;;;;;;;;;;;13.70;99.90;;;;;;6151228;23;20392;-77
2023/10/29 13:03:04;;;;;;;;;;;13.70;99.90;;;;;;6151034;23;19916;-76
2023/10/29 13:05:30;;;;;;;;;;;13.60;99.90;;;;;;6151094;23;19916;-78
2023/10/29 13:07:57;;;;;;;;;;;13.50;99.90;;;;;;6150257;23;19916;-78
2023/10/29 13:10:23;;;;;;;;;;;13.50;99.90;;;;;;6126057;23;19928;-78
2023/10/29 13:12:49;;;;;;;;;;;13.50;99.90;;;;;;6125370;23;19912;-77
2023/10/29 13:15:15;;;;;;;;;;;13.40;99.90;;;;;;6126442;23;19920;-77
2023/10/29 13:17:40;;;;;;;;;;;13.40;99.90;;;;;;6149352;23;20379;-77
2023/10/29 13:20:07;;;;;;;;;;;13.40;99.90;;;;;;6150190;23;20263;-78
2023/10/29 13:22:33;;;;;;;;;;;13.40;99.90;;;;;;6150793;23;19920;-78
2023/10/29 13:25:01;;;;;;;;;;;13.40;99.90;;;;;;6151863;23;20329;-78
2023/10/29 13:27:26;;;;;;;;;;;13.40;99.90;;;;;;6150169;23;19924;-77
2023/10/29 13:29:52;;;;;;;;;;;13.40;99.90;;;;;;6151200;23;19917;-77
2023/10/29 13:32:18;;;;;;;;;;;13.40;99.90;;;;;;6149888;23;19921;-78
2023/10/29 13:34:45;;;;;;;;;;;13.40;99.90;;;;;;6149210;23;19920;-77
2023/10/29 13:37:11;;;;;;;;;;;13.40;99.90;;;;;;6125986;23;19925;-78
2023/10/29 13:39:37;;;;;;;;;;;13.40;99.90;;;;;;6151415;23;19917;-78
2023/10/29 13:42:04;;;;;;;;;;;13.40;99.90;;;;;;6151729;23;19935;-79
2023/10/29 13:44:30;;;;;;;;;;;13.50;99.90;;;;;;6149495;23;20024;-77
2023/10/29 13:46:56;;;;;;;;;;;13.50;99.90;;;;;;6152298;23;19951;-77
2023/10/29 13:49:21;;;;;;;;;;;13.50;99.90;;;;;;6149598;23;20194;-77
2023/10/29 13:51:47;;;;;;;;;;;13.40;99.90;;;;;;6150286;23;19917;-77
2023/10/29 13:54:13;;;;;;;;;;;13.40;99.90;;;;;;6124810;23;19979;-78
2023/10/29 13:56:38;;;;;;;;;;;13.40;99.90;;;;;;6150586;23;19979;-77
2023/10/29 13:59:04;;;;;;;;;;;13.40;99.90;;;;;;6149382;23;19916;-78
2023/10/29 14:01:30;;;;;;;;;;;13.40;99.90;;;;;;6149793;23;19924;-78
2023/10/29 14:03:57;;;;;;;;;;;13.50;99.90;;;;;;6126097;23;19917;-77
2023/10/29 14:06:22;;;;;;;;;;;13.50;99.90;;;;;;6151948;23;20003;-78
2023/10/29 14:08:48;;;;;;;;;;;13.40;99.90;;;;;;6149354;23;20682;-78
2023/10/29 14:11:15;;;;;;;;;;;13.40;99.90;;;;;;6150832;23;19939;-77
2023/10/29 14:13:42;;;;;;;;;;;13.40;99.90;;;;;;6148862;23;19967;-77